sensor_id;sensor_type;location;lat;lon;timestamp;P1;durP1;ratioP1;P2;durP2;ratioP2
26806;SDS011;14380;49.910;6.792;2022-09-21T00:01:16;2.85;;;1.25;;
26806;SDS011;14380;49.910;6.792;2022-09-21T00:03:44;8.23;;;1.83;;
26806;SDS011;14380;49.910;6.792;2022-09-21T00:06:13;5.53;;;1.48;;
26806;SDS011;14380;49.910;6.792;2022-09-21T00:08:41;8.80;;;1.33;;
26806;SDS011;14380;49.910;6.792;2022-09-21T00:11:10;5.55;;;1.70;;
26806;SDS011;14380;49.910;6.792;2022-09-21T00:13:38;8.52;;;1.75;;
26806;SDS011;14380;49.910;6.792;2022-09-21T00:16:05;8.32;;;1.92;;
26806;SDS011;14380;49.910;6.792;2022-09-21T00:18:32;5.60;;;1.40;;
26806;SDS011;14380;49.910;6.792;2022-09-21T00:21:00;4.80;;;1.80;;
26806;SDS011;14380;49.910;6.792;2022-09-21T00:23:29;4.15;;;2.00;;
26806;SDS011;14380;49.910;6.792;2022-09-21T00:26:02;5.57;;;1.70;;
26806;SDS011;14380;49.910;6.792;2022-09-21T00:28:30;5.20;;;1.50;;
26806;SDS011;14380;49.910;6.792;2022-09-21T00:30:59;8.05;;;1.70;;
26806;SDS011;14380;49.910;6.792;2022-09-21T00:33:27;10.15;;;2.22;;
26806;SDS011;14380;49.910;6.792;2022-09-21T00:35:53;3.22;;;1.50;;
26806;SDS011;14380;49.910;6.792;2022-09-21T00:38:20;4.18;;;1.77;;
26806;SDS011;14380;49.910;6.792;2022-09-21T00:40:48;7.75;;;2.17;;
26806;SDS011;14380;49.910;6.792;2022-09-21T00:43:15;10.07;;;1.60;;
26806;SDS011;14380;49.910;6.792;2022-09-21T00:45:42;5.30;;;1.98;;
26806;SDS011;14380;49.910;6.792;2022-09-21T00:48:11;3.25;;;2.30;;
26806;SDS011;14380;49.910;6.792;2022-09-21T00:50:38;5.40;;;2.17;;
26806;SDS011;14380;49.910;6.792;2022-09-21T00:53:09;6.57;;;1.65;;
26806;SDS011;14380;49.910;6.792;2022-09-21T00:55:36;5.45;;;1.75;;
26806;SDS011;14380;49.910;6.792;2022-09-21T00:58:10;7.57;;;1.98;;
26806;SDS011;14380;49.910;6.792;2022-09-21T01:00:42;5.75;;;1.67;;
26806;SDS011;14380;49.910;6.792;2022-09-21T01:03:08;11.77;;;2.13;;
26806;SDS011;14380;49.910;6.792;2022-09-21T01:05:37;5.22;;;2.15;;
26806;SDS011;14380;49.910;6.792;2022-09-21T01:08:04;6.40;;;1.85;;
26806;SDS011;14380;49.910;6.792;2022-09-21T01:10:35;6.75;;;2.22;;
26806;SDS011;14380;49.910;6.792;2022-09-21T01:13:16;7.78;;;1.92;;
26806;SDS011;14380;49.910;6.792;2022-09-21T01:15:47;8.25;;;2.22;;
26806;SDS011;14380;49.910;6.792;2022-09-21T01:18:26;4.80;;;1.95;;
26806;SDS011;14380;49.910;6.792;2022-09-21T01:21:10;2.88;;;1.73;;
26806;SDS011;14380;49.910;6.792;2022-09-21T01:23:51;2.20;;;1.65;;
26806;SDS011;14380;49.910;6.792;2022-09-21T01:26:35;3.22;;;2.30;;
26806;SDS011;14380;49.910;6.792;2022-09-21T01:29:26;7.57;;;2.20;;
26806;SDS011;14380;49.910;6.792;2022-09-21T01:31:57;7.05;;;2.00;;
26806;SDS011;14380;49.910;6.792;2022-09-21T01:34:32;6.72;;;2.28;;
26806;SDS011;14380;49.910;6.792;2022-09-21T01:37:03;5.80;;;2.10;;
26806;SDS011;14380;49.910;6.792;2022-09-21T01:39:34;5.15;;;1.70;;
26806;SDS011;14380;49.910;6.792;2022-09-21T01:42:04;5.60;;;2.10;;
26806;SDS011;14380;49.910;6.792;2022-09-21T01:44:34;9.20;;;2.10;;
26806;SDS011;14380;49.910;6.792;2022-09-21T01:47:03;6.07;;;2.55;;
26806;SDS011;14380;49.910;6.792;2022-09-21T01:49:35;4.50;;;2.50;;
26806;SDS011;14380;49.910;6.792;2022-09-21T01:52:04;3.97;;;2.85;;
26806;SDS011;14380;49.910;6.792;2022-09-21T01:54:37;4.45;;;2.50;;
26806;SDS011;14380;49.910;6.792;2022-09-21T01:57:10;5.80;;;2.10;;
26806;SDS011;14380;49.910;6.792;2022-09-21T01:59:45;3.35;;;2.00;;
26806;SDS011;14380;49.910;6.792;2022-09-21T02:02:17;4.90;;;2.08;;
26806;SDS011;14380;49.910;6.792;2022-09-21T02:04:46;5.25;;;2.00;;
26806;SDS011;14380;49.910;6.792;2022-09-21T02:07:14;5.43;;;2.20;;
26806;SDS011;14380;49.910;6.792;2022-09-21T02:09:41;6.70;;;2.20;;
26806;SDS011;14380;49.910;6.792;2022-09-21T02:12:08;6.35;;;2.25;;
26806;SDS011;14380;49.910;6.792;2022-09-21T02:14:35;5.35;;;1.83;;
26806;SDS011;14380;49.910;6.792;2022-09-21T02:17:07;2.80;;;1.73;;
26806;SDS011;14380;49.910;6.792;2022-09-21T02:19:49;5.90;;;2.28;;
26806;SDS011;14380;49.910;6.792;2022-09-21T02:22:23;9.13;;;2.60;;
26806;SDS011;14380;49.910;6.792;2022-09-21T02:25:03;5.07;;;2.40;;
26806;SDS011;14380;49.910;6.792;2022-09-21T02:27:34;9.23;;;2.83;;
26806;SDS011;14380;49.910;6.792;2022-09-21T02:30:07;2.42;;;1.58;;
26806;SDS011;14380;49.910;6.792;2022-09-21T02:32:42;5.50;;;1.83;;
26806;SDS011;14380;49.910;6.792;2022-09-21T02:35:15;7.90;;;1.92;;
26806;SDS011;14380;49.910;6.792;2022-09-21T02:37:56;7.90;;;2.00;;
26806;SDS011;14380;49.910;6.792;2022-09-21T02:40:32;4.85;;;2.00;;
26806;SDS011;14380;49.910;6.792;2022-09-21T02:43:05;9.85;;;2.30;;
26806;SDS011;14380;49.910;6.792;2022-09-21T02:45:38;12.70;;;3.55;;
26806;SDS011;14380;49.910;6.792;2022-09-21T02:48:11;3.28;;;2.40;;
26806;SDS011;14380;49.910;6.792;2022-09-21T02:50:41;3.35;;;2.20;;
26806;SDS011;14380;49.910;6.792;2022-09-21T02:53:11;4.05;;;2.20;;
26806;SDS011;14380;49.910;6.792;2022-09-21T02:55:41;5.38;;;2.08;;
26806;SDS011;14380;49.910;6.792;2022-09-21T02:58:09;4.38;;;1.85;;
26806;SDS011;14380;49.910;6.792;2022-09-21T03:00:40;3.80;;;1.98;;
26806;SDS011;14380;49.910;6.792;2022-09-21T03:03:15;6.63;;;2.50;;
26806;SDS011;14380;49.910;6.792;2022-09-21T03:05:43;4.47;;;1.88;;
26806;SDS011;14380;49.910;6.792;2022-09-21T03:08:11;5.57;;;1.95;;
26806;SDS011;14380;49.910;6.792;2022-09-21T03:10:38;10.98;;;2.40;;
26806;SDS011;14380;49.910;6.792;2022-09-21T03:13:05;4.07;;;1.58;;
26806;SDS011;14380;49.910;6.792;2022-09-21T03:15:33;5.72;;;2.60;;
26806;SDS011;14380;49.910;6.792;2022-09-21T03:17:59;11.15;;;2.40;;
26806;SDS011;14380;49.910;6.792;2022-09-21T03:20:28;6.85;;;2.28;;
26806;SDS011;14380;49.910;6.792;2022-09-21T03:22:56;5.00;;;2.25;;
26806;SDS011;14380;49.910;6.792;2022-09-21T03:25:22;7.00;;;2.55;;
26806;SDS011;14380;49.910;6.792;2022-09-21T03:27:50;8.20;;;2.53;;
26806;SDS011;14380;49.910;6.792;2022-09-21T03:30:18;6.75;;;2.85;;
26806;SDS011;14380;49.910;6.792;2022-09-21T03:32:45;5.45;;;2.60;;
26806;SDS011;14380;49.910;6.792;2022-09-21T03:35:13;9.88;;;2.85;;
26806;SDS011;14380;49.910;6.792;2022-09-21T03:37:41;10.70;;;3.55;;
26806;SDS011;14380;49.910;6.792;2022-09-21T03:40:08;4.47;;;2.80;;
26806;SDS011;14380;49.910;6.792;2022-09-21T03:42:36;7.97;;;3.03;;
26806;SDS011;14380;49.910;6.792;2022-09-21T03:45:03;7.95;;;2.75;;
26806;SDS011;14380;49.910;6.792;2022-09-21T03:47:30;8.45;;;2.58;;
26806;SDS011;14380;49.910;6.792;2022-09-21T03:49:58;7.55;;;2.70;;
26806;SDS011;14380;49.910;6.792;2022-09-21T03:52:25;5.22;;;2.22;;
26806;SDS011;14380;49.910;6.792;2022-09-21T03:54:53;7.57;;;2.50;;
26806;SDS011;14380;49.910;6.792;2022-09-21T03:57:20;7.22;;;2.20;;
26806;SDS011;14380;49.910;6.792;2022-09-21T03:59:46;5.72;;;2.55;;
26806;SDS011;14380;49.910;6.792;2022-09-21T04:02:13;9.45;;;2.65;;
26806;SDS011;14380;49.910;6.792;2022-09-21T04:04:40;4.05;;;2.42;;
26806;SDS011;14380;49.910;6.792;2022-09-21T04:07:06;7.93;;;2.50;;
26806;SDS011;14380;49.910;6.792;2022-09-21T04:09:33;9.65;;;2.65;;
26806;SDS011;14380;49.910;6.792;2022-09-21T04:12:01;8.13;;;2.85;;
26806;SDS011;14380;49.910;6.792;2022-09-21T04:14:28;8.05;;;2.55;;
26806;SDS011;14380;49.910;6.792;2022-09-21T04:16:54;3.80;;;2.83;;
26806;SDS011;14380;49.910;6.792;2022-09-21T04:19:22;5.53;;;2.92;;
26806;SDS011;14380;49.910;6.792;2022-09-21T04:21:48;9.07;;;2.80;;
26806;SDS011;14380;49.910;6.792;2022-09-21T04:24:15;8.57;;;3.17;;
26806;SDS011;14380;49.910;6.792;2022-09-21T04:26:43;6.10;;;3.30;;
26806;SDS011;14380;49.910;6.792;2022-09-21T04:29:12;7.10;;;2.53;;
26806;SDS011;14380;49.910;6.792;2022-09-21T04:31:39;10.90;;;3.10;;
26806;SDS011;14380;49.910;6.792;2022-09-21T04:34:07;5.03;;;3.10;;
26806;SDS011;14380;49.910;6.792;2022-09-21T04:36:37;5.28;;;2.50;;
26806;SDS011;14380;49.910;6.792;2022-09-21T04:39:04;7.38;;;2.25;;
26806;SDS011;14380;49.910;6.792;2022-09-21T04:41:31;6.15;;;2.50;;
26806;SDS011;14380;49.910;6.792;2022-09-21T04:43:58;2.53;;;2.20;;
26806;SDS011;14380;49.910;6.792;2022-09-21T04:46:26;10.75;;;3.20;;
26806;SDS011;14380;49.910;6.792;2022-09-21T04:48:53;2.65;;;2.30;;
26806;SDS011;14380;49.910;6.792;2022-09-21T04:51:19;3.58;;;2.42;;
26806;SDS011;14380;49.910;6.792;2022-09-21T04:53:46;8.57;;;2.90;;
26806;SDS011;14380;49.910;6.792;2022-09-21T04:56:13;5.15;;;2.70;;
26806;SDS011;14380;49.910;6.792;2022-09-21T04:58:41;4.57;;;1.83;;
26806;SDS011;14380;49.910;6.792;2022-09-21T05:01:08;5.65;;;2.08;;
26806;SDS011;14380;49.910;6.792;2022-09-21T05:03:37;4.30;;;2.20;;
26806;SDS011;14380;49.910;6.792;2022-09-21T05:06:03;4.90;;;2.20;;
26806;SDS011;14380;49.910;6.792;2022-09-21T05:08:30;6.47;;;2.30;;
26806;SDS011;14380;49.910;6.792;2022-09-21T05:11:15;6.15;;;2.20;;
26806;SDS011;14380;49.910;6.792;2022-09-21T05:13:43;9.38;;;2.25;;
26806;SDS011;14380;49.910;6.792;2022-09-21T05:16:10;8.40;;;2.75;;
26806;SDS011;14380;49.910;6.792;2022-09-21T05:18:38;9.95;;;2.42;;
26806;SDS011;14380;49.910;6.792;2022-09-21T05:21:05;9.35;;;2.88;;
26806;SDS011;14380;49.910;6.792;2022-09-21T05:23:32;7.50;;;3.20;;
26806;SDS011;14380;49.910;6.792;2022-09-21T05:25:59;4.97;;;3.30;;
26806;SDS011;14380;49.910;6.792;2022-09-21T05:28:26;6.82;;;3.20;;
26806;SDS011;14380;49.910;6.792;2022-09-21T05:30:55;11.13;;;3.95;;
26806;SDS011;14380;49.910;6.792;2022-09-21T05:33:25;11.00;;;4.60;;
26806;SDS011;14380;49.910;6.792;2022-09-21T05:35:57;18.88;;;6.35;;
26806;SDS011;14380;49.910;6.792;2022-09-21T05:38:29;11.77;;;5.47;;
26806;SDS011;14380;49.910;6.792;2022-09-21T05:40:57;13.60;;;5.25;;
26806;SDS011;14380;49.910;6.792;2022-09-21T05:43:24;11.73;;;5.40;;
26806;SDS011;14380;49.910;6.792;2022-09-21T05:45:53;17.08;;;6.30;;
26806;SDS011;14380;49.910;6.792;2022-09-21T05:48:24;12.82;;;5.90;;
26806;SDS011;14380;49.910;6.792;2022-09-21T05:51:00;10.13;;;5.05;;
26806;SDS011;14380;49.910;6.792;2022-09-21T05:53:33;18.70;;;5.70;;
26806;SDS011;14380;49.910;6.792;2022-09-21T05:56:14;10.30;;;5.00;;
26806;SDS011;14380;49.910;6.792;2022-09-21T05:58:50;10.10;;;4.80;;
26806;SDS011;14380;49.910;6.792;2022-09-21T06:01:27;9.52;;;4.30;;
26806;SDS011;14380;49.910;6.792;2022-09-21T06:04:07;7.88;;;4.32;;
26806;SDS011;14380;49.910;6.792;2022-09-21T06:06:38;9.75;;;5.30;;
26806;SDS011;14380;49.910;6.792;2022-09-21T06:09:04;9.15;;;5.05;;
26806;SDS011;14380;49.910;6.792;2022-09-21T06:11:31;6.07;;;5.40;;
26806;SDS011;14380;49.910;6.792;2022-09-21T06:13:59;10.98;;;4.65;;
26806;SDS011;14380;49.910;6.792;2022-09-21T06:16:25;10.55;;;4.97;;
26806;SDS011;14380;49.910;6.792;2022-09-21T06:18:52;10.13;;;5.95;;
26806;SDS011;14380;49.910;6.792;2022-09-21T06:21:19;6.82;;;5.70;;
26806;SDS011;14380;49.910;6.792;2022-09-21T06:23:47;7.15;;;5.10;;
26806;SDS011;14380;49.910;6.792;2022-09-21T06:26:13;6.15;;;4.97;;
26806;SDS011;14380;49.910;6.792;2022-09-21T06:28:41;6.70;;;5.30;;
26806;SDS011;14380;49.910;6.792;2022-09-21T06:31:08;9.50;;;4.25;;
26806;SDS011;14380;49.910;6.792;2022-09-21T06:33:34;7.40;;;5.25;;
26806;SDS011;14380;49.910;6.792;2022-09-21T06:36:02;12.73;;;5.22;;
26806;SDS011;14380;49.910;6.792;2022-09-21T06:38:29;7.43;;;5.15;;
26806;SDS011;14380;49.910;6.792;2022-09-21T06:41:00;7.00;;;5.20;;
26806;SDS011;14380;49.910;6.792;2022-09-21T06:43:28;6.65;;;5.50;;
26806;SDS011;14380;49.910;6.792;2022-09-21T06:45:56;6.88;;;4.97;;
26806;SDS011;14380;49.910;6.792;2022-09-21T06:48:25;7.78;;;4.53;;
26806;SDS011;14380;49.910;6.792;2022-09-21T06:50:55;7.43;;;4.55;;
26806;SDS011;14380;49.910;6.792;2022-09-21T06:53:23;6.50;;;4.55;;
26806;SDS011;14380;49.910;6.792;2022-09-21T06:55:49;6.90;;;4.07;;
26806;SDS011;14380;49.910;6.792;2022-09-21T06:58:17;9.55;;;4.63;;
26806;SDS011;14380;49.910;6.792;2022-09-21T07:00:44;9.13;;;4.57;;
26806;SDS011;14380;49.910;6.792;2022-09-21T07:03:11;7.57;;;3.95;;
26806;SDS011;14380;49.910;6.792;2022-09-21T07:05:38;7.57;;;4.47;;
26806;SDS011;14380;49.910;6.792;2022-09-21T07:08:05;5.75;;;4.82;;
26806;SDS011;14380;49.910;6.792;2022-09-21T07:10:31;5.28;;;3.95;;
26806;SDS011;14380;49.910;6.792;2022-09-21T07:13:00;12.68;;;5.18;;
26806;SDS011;14380;49.910;6.792;2022-09-21T07:15:29;10.45;;;4.65;;
26806;SDS011;14380;49.910;6.792;2022-09-21T07:17:55;35.25;;;5.32;;
26806;SDS011;14380;49.910;6.792;2022-09-21T07:20:22;27.42;;;5.20;;
26806;SDS011;14380;49.910;6.792;2022-09-21T07:22:49;42.53;;;4.85;;
26806;SDS011;14380;49.910;6.792;2022-09-21T07:25:15;92.57;;;5.43;;
26806;SDS011;14380;49.910;6.792;2022-09-21T07:27:42;135.82;;;7.22;;
26806;SDS011;14380;49.910;6.792;2022-09-21T07:30:09;108.90;;;7.50;;
26806;SDS011;14380;49.910;6.792;2022-09-21T07:32:38;87.68;;;6.70;;
26806;SDS011;14380;49.910;6.792;2022-09-21T07:35:05;64.05;;;8.15;;
26806;SDS011;14380;49.910;6.792;2022-09-21T07:37:32;136.35;;;7.97;;
26806;SDS011;14380;49.910;6.792;2022-09-21T07:39:58;52.80;;;7.00;;
26806;SDS011;14380;49.910;6.792;2022-09-21T07:42:28;32.10;;;6.45;;
26806;SDS011;14380;49.910;6.792;2022-09-21T07:44:54;113.10;;;7.90;;
26806;SDS011;14380;49.910;6.792;2022-09-21T07:47:23;241.13;;;11.35;;
26806;SDS011;14380;49.910;6.792;2022-09-21T07:49:52;23.00;;;4.93;;
26806;SDS011;14380;49.910;6.792;2022-09-21T07:52:19;163.73;;;9.30;;
26806;SDS011;14380;49.910;6.792;2022-09-21T07:54:46;11.48;;;6.20;;
26806;SDS011;14380;49.910;6.792;2022-09-21T07:57:12;144.70;;;8.07;;
26806;SDS011;14380;49.910;6.792;2022-09-21T07:59:57;42.30;;;6.72;;
26806;SDS011;14380;49.910;6.792;2022-09-21T08:02:23;58.10;;;7.25;;
26806;SDS011;14380;49.910;6.792;2022-09-21T08:04:50;40.35;;;6.72;;
26806;SDS011;14380;49.910;6.792;2022-09-21T08:07:19;43.97;;;7.38;;
26806;SDS011;14380;49.910;6.792;2022-09-21T08:09:45;20.77;;;7.13;;
26806;SDS011;14380;49.910;6.792;2022-09-21T08:12:13;62.28;;;8.13;;
26806;SDS011;14380;49.910;6.792;2022-09-21T08:14:41;21.15;;;8.00;;
26806;SDS011;14380;49.910;6.792;2022-09-21T08:17:08;10.55;;;6.90;;
26806;SDS011;14380;49.910;6.792;2022-09-21T08:19:34;10.52;;;7.28;;
26806;SDS011;14380;49.910;6.792;2022-09-21T08:22:01;10.82;;;7.80;;
26806;SDS011;14380;49.910;6.792;2022-09-21T08:24:29;9.52;;;7.60;;
26806;SDS011;14380;49.910;6.792;2022-09-21T08:26:57;7.85;;;7.05;;
26806;SDS011;14380;49.910;6.792;2022-09-21T08:29:24;8.38;;;7.20;;
26806;SDS011;14380;49.910;6.792;2022-09-21T08:31:51;12.50;;;8.60;;
26806;SDS011;14380;49.910;6.792;2022-09-21T08:34:17;14.07;;;8.13;;
26806;SDS011;14380;49.910;6.792;2022-09-21T08:36:44;13.57;;;7.80;;
26806;SDS011;14380;49.910;6.792;2022-09-21T08:39:11;10.48;;;8.63;;
26806;SDS011;14380;49.910;6.792;2022-09-21T08:41:47;13.55;;;8.77;;
26806;SDS011;14380;49.910;6.792;2022-09-21T08:44:24;13.48;;;9.02;;
26806;SDS011;14380;49.910;6.792;2022-09-21T08:46:57;12.70;;;9.98;;
26806;SDS011;14380;49.910;6.792;2022-09-21T08:49:29;14.60;;;9.85;;
26806;SDS011;14380;49.910;6.792;2022-09-21T08:52:00;17.13;;;11.23;;
26806;SDS011;14380;49.910;6.792;2022-09-21T08:54:30;14.90;;;10.88;;
26806;SDS011;14380;49.910;6.792;2022-09-21T08:57:06;17.83;;;10.50;;
26806;SDS011;14380;49.910;6.792;2022-09-21T08:59:37;12.15;;;10.05;;
26806;SDS011;14380;49.910;6.792;2022-09-21T09:02:09;15.38;;;11.73;;
26806;SDS011;14380;49.910;6.792;2022-09-21T09:04:56;19.25;;;11.35;;
26806;SDS011;14380;49.910;6.792;2022-09-21T09:07:41;12.55;;;10.38;;
26806;SDS011;14380;49.910;6.792;2022-09-21T09:10:32;12.93;;;9.82;;
26806;SDS011;14380;49.910;6.792;2022-09-21T09:13:09;11.43;;;9.70;;
26806;SDS011;14380;49.910;6.792;2022-09-21T09:15:55;12.95;;;9.45;;
26806;SDS011;14380;49.910;6.792;2022-09-21T09:18:33;14.80;;;9.10;;
26806;SDS011;14380;49.910;6.792;2022-09-21T09:21:08;12.07;;;7.88;;
26806;SDS011;14380;49.910;6.792;2022-09-21T09:23:39;15.18;;;7.03;;
26806;SDS011;14380;49.910;6.792;2022-09-21T09:26:11;11.10;;;6.70;;
26806;SDS011;14380;49.910;6.792;2022-09-21T09:28:47;10.07;;;6.18;;
26806;SDS011;14380;49.910;6.792;2022-09-21T09:31:17;10.52;;;6.25;;
26806;SDS011;14380;49.910;6.792;2022-09-21T09:33:47;9.88;;;5.45;;
26806;SDS011;14380;49.910;6.792;2022-09-21T09:36:20;13.68;;;6.22;;
26806;SDS011;14380;49.910;6.792;2022-09-21T09:38:50;8.45;;;6.15;;
26806;SDS011;14380;49.910;6.792;2022-09-21T09:44:18;10.50;;;5.63;;
26806;SDS011;14380;49.910;6.792;2022-09-21T09:46:59;9.70;;;4.30;;
26806;SDS011;14380;49.910;6.792;2022-09-21T09:49:35;7.00;;;4.47;;
26806;SDS011;14380;49.910;6.792;2022-09-21T09:52:07;8.13;;;4.78;;
26806;SDS011;14380;49.910;6.792;2022-09-21T09:54:36;9.45;;;4.60;;
26806;SDS011;14380;49.910;6.792;2022-09-21T09:57:03;7.97;;;4.43;;
26806;SDS011;14380;49.910;6.792;2022-09-21T09:59:33;9.95;;;4.53;;
26806;SDS011;14380;49.910;6.792;2022-09-21T10:02:04;7.25;;;3.90;;
26806;SDS011;14380;49.910;6.792;2022-09-21T10:04:32;8.38;;;3.30;;
26806;SDS011;14380;49.910;6.792;2022-09-21T10:06:59;7.07;;;3.33;;
26806;SDS011;14380;49.910;6.792;2022-09-21T10:09:27;5.82;;;3.45;;
26806;SDS011;14380;49.910;6.792;2022-09-21T10:11:57;4.93;;;2.75;;
26806;SDS011;14380;49.910;6.792;2022-09-21T10:14:26;8.40;;;3.75;;
26806;SDS011;14380;49.910;6.792;2022-09-21T10:17:00;7.85;;;2.90;;
26806;SDS011;14380;49.910;6.792;2022-09-21T10:19:31;7.43;;;2.70;;
26806;SDS011;14380;49.910;6.792;2022-09-21T10:21:58;7.30;;;2.25;;
26806;SDS011;14380;49.910;6.792;2022-09-21T10:24:27;3.55;;;2.20;;
26806;SDS011;14380;49.910;6.792;2022-09-21T10:27:01;6.60;;;2.63;;
26806;SDS011;14380;49.910;6.792;2022-09-21T10:29:31;6.47;;;2.30;;
26806;SDS011;14380;49.910;6.792;2022-09-21T10:32:17;3.92;;;1.90;;
26806;SDS011;14380;49.910;6.792;2022-09-21T10:35:00;6.28;;;2.13;;
26806;SDS011;14380;49.910;6.792;2022-09-21T10:37:45;8.63;;;2.10;;
26806;SDS011;14380;49.910;6.792;2022-09-21T10:40:23;4.43;;;1.20;;
26806;SDS011;14380;49.910;6.792;2022-09-21T10:42:53;3.47;;;1.20;;
26806;SDS011;14380;49.910;6.792;2022-09-21T10:45:23;6.00;;;1.40;;
26806;SDS011;14380;49.910;6.792;2022-09-21T10:47:52;3.90;;;1.40;;
26806;SDS011;14380;49.910;6.792;2022-09-21T10:50:23;5.05;;;1.40;;
26806;SDS011;14380;49.910;6.792;2022-09-21T10:52:54;8.13;;;1.63;;
26806;SDS011;14380;49.910;6.792;2022-09-21T10:55:24;4.10;;;1.15;;
26806;SDS011;14380;49.910;6.792;2022-09-21T10:57:54;6.90;;;1.25;;
26806;SDS011;14380;49.910;6.792;2022-09-21T11:00:29;4.15;;;1.10;;
26806;SDS011;14380;49.910;6.792;2022-09-21T11:03:02;5.35;;;1.30;;
26806;SDS011;14380;49.910;6.792;2022-09-21T11:05:46;4.40;;;1.50;;
26806;SDS011;14380;49.910;6.792;2022-09-21T11:08:17;6.82;;;1.20;;
26806;SDS011;14380;49.910;6.792;2022-09-21T11:10:48;6.72;;;0.77;;
26806;SDS011;14380;49.910;6.792;2022-09-21T11:13:22;4.15;;;1.13;;
26806;SDS011;14380;49.910;6.792;2022-09-21T11:15:57;4.43;;;0.90;;
26806;SDS011;14380;49.910;6.792;2022-09-21T11:18:39;5.07;;;1.20;;
26806;SDS011;14380;49.910;6.792;2022-09-21T11:21:13;4.15;;;0.60;;
26806;SDS011;14380;49.910;6.792;2022-09-21T11:23:46;2.78;;;0.85;;
26806;SDS011;14380;49.910;6.792;2022-09-21T11:26:32;7.20;;;0.70;;
26806;SDS011;14380;49.910;6.792;2022-09-21T11:29:07;3.88;;;0.95;;
26806;SDS011;14380;49.910;6.792;2022-09-21T11:31:40;4.35;;;1.10;;
26806;SDS011;14380;49.910;6.792;2022-09-21T11:34:25;5.25;;;1.08;;
26806;SDS011;14380;49.910;6.792;2022-09-21T11:37:24;4.57;;;1.15;;
26806;SDS011;14380;49.910;6.792;2022-09-21T11:40:08;4.72;;;1.42;;
26806;SDS011;14380;49.910;6.792;2022-09-21T11:42:54;6.57;;;1.05;;
26806;SDS011;14380;49.910;6.792;2022-09-21T11:45:36;4.45;;;0.93;;
26806;SDS011;14380;49.910;6.792;2022-09-21T11:48:16;3.20;;;0.90;;
26806;SDS011;14380;49.910;6.792;2022-09-21T11:50:58;4.25;;;0.93;;
26806;SDS011;14380;49.910;6.792;2022-09-21T11:53:36;4.32;;;0.90;;
26806;SDS011;14380;49.910;6.792;2022-09-21T11:59:17;4.07;;;0.73;;
26806;SDS011;14380;49.910;6.792;2022-09-21T12:02:02;4.47;;;0.73;;
26806;SDS011;14380;49.910;6.792;2022-09-21T12:04:48;3.85;;;0.70;;
26806;SDS011;14380;49.910;6.792;2022-09-21T12:07:25;3.70;;;0.88;;
26806;SDS011;14380;49.910;6.792;2022-09-21T12:10:06;2.72;;;0.90;;
26806;SDS011;14380;49.910;6.792;2022-09-21T12:12:43;2.78;;;0.60;;
26806;SDS011;14380;49.910;6.792;2022-09-21T12:15:16;3.92;;;0.95;;
26806;SDS011;14380;49.910;6.792;2022-09-21T12:17:51;4.85;;;1.00;;
26806;SDS011;14380;49.910;6.792;2022-09-21T12:20:24;5.68;;;0.73;;
26806;SDS011;14380;49.910;6.792;2022-09-21T12:23:07;3.85;;;1.15;;
26806;SDS011;14380;49.910;6.792;2022-09-21T12:25:40;3.60;;;1.17;;
26806;SDS011;14380;49.910;6.792;2022-09-21T12:28:20;2.88;;;0.70;;
26806;SDS011;14380;49.910;6.792;2022-09-21T12:30:52;1.73;;;0.80;;
26806;SDS011;14380;49.910;6.792;2022-09-21T12:33:24;3.25;;;0.60;;
26806;SDS011;14380;49.910;6.792;2022-09-21T12:35:57;3.75;;;0.88;;
26806;SDS011;14380;49.910;6.792;2022-09-21T12:38:34;2.80;;;0.77;;
26806;SDS011;14380;49.910;6.792;2022-09-21T12:41:08;1.95;;;0.80;;
26806;SDS011;14380;49.910;6.792;2022-09-21T12:43:42;3.03;;;0.70;;
26806;SDS011;14380;49.910;6.792;2022-09-21T12:46:12;4.00;;;0.85;;
26806;SDS011;14380;49.910;6.792;2022-09-21T12:48:42;2.63;;;0.70;;
26806;SDS011;14380;49.910;6.792;2022-09-21T12:51:11;3.22;;;1.02;;
26806;SDS011;14380;49.910;6.792;2022-09-21T12:53:46;1.33;;;0.55;;
26806;SDS011;14380;49.910;6.792;2022-09-21T12:56:17;4.25;;;0.85;;
26806;SDS011;14380;49.910;6.792;2022-09-21T12:59:03;3.10;;;0.63;;
26806;SDS011;14380;49.910;6.792;2022-09-21T13:01:40;2.78;;;0.73;;
26806;SDS011;14380;49.910;6.792;2022-09-21T13:04:18;2.38;;;0.88;;
26806;SDS011;14380;49.910;6.792;2022-09-21T13:10:16;4.50;;;0.60;;
26806;SDS011;14380;49.910;6.792;2022-09-21T13:12:46;2.63;;;0.82;;
26806;SDS011;14380;49.910;6.792;2022-09-21T13:15:22;4.35;;;0.90;;
26806;SDS011;14380;49.910;6.792;2022-09-21T13:17:56;2.00;;;0.43;;
26806;SDS011;14380;49.910;6.792;2022-09-21T13:20:24;2.40;;;0.68;;
26806;SDS011;14380;49.910;6.792;2022-09-21T13:22:56;3.42;;;0.60;;
26806;SDS011;14380;49.910;6.792;2022-09-21T13:25:27;2.35;;;0.52;;
26806;SDS011;14380;49.910;6.792;2022-09-21T13:27:59;3.92;;;0.60;;
26806;SDS011;14380;49.910;6.792;2022-09-21T13:30:29;3.13;;;0.80;;
26806;SDS011;14380;49.910;6.792;2022-09-21T13:32:58;3.75;;;0.50;;
26806;SDS011;14380;49.910;6.792;2022-09-21T13:38:22;2.53;;;0.55;;
26806;SDS011;14380;49.910;6.792;2022-09-21T13:40:56;4.00;;;0.60;;
26806;SDS011;14380;49.910;6.792;2022-09-21T13:46:45;3.03;;;0.60;;
26806;SDS011;14380;49.910;6.792;2022-09-21T13:49:16;2.65;;;0.60;;
26806;SDS011;14380;49.910;6.792;2022-09-21T13:51:51;1.98;;;0.80;;
26806;SDS011;14380;49.910;6.792;2022-09-21T13:54:21;3.83;;;0.70;;
26806;SDS011;14380;49.910;6.792;2022-09-21T13:56:59;2.30;;;0.65;;
26806;SDS011;14380;49.910;6.792;2022-09-21T13:59:30;1.45;;;0.70;;
26806;SDS011;14380;49.910;6.792;2022-09-21T14:02:00;2.53;;;0.77;;
26806;SDS011;14380;49.910;6.792;2022-09-21T14:04:30;1.60;;;0.60;;
26806;SDS011;14380;49.910;6.792;2022-09-21T14:07:01;2.80;;;0.55;;
26806;SDS011;14380;49.910;6.792;2022-09-21T14:09:33;1.90;;;0.50;;
26806;SDS011;14380;49.910;6.792;2022-09-21T14:12:09;3.15;;;0.40;;
26806;SDS011;14380;49.910;6.792;2022-09-21T14:14:44;2.38;;;0.45;;
26806;SDS011;14380;49.910;6.792;2022-09-21T14:17:37;3.40;;;0.60;;
26806;SDS011;14380;49.910;6.792;2022-09-21T14:20:05;1.40;;;0.45;;
26806;SDS011;14380;49.910;6.792;2022-09-21T14:25:46;1.15;;;0.40;;
26806;SDS011;14380;49.910;6.792;2022-09-21T14:28:16;2.40;;;0.70;;
26806;SDS011;14380;49.910;6.792;2022-09-21T14:30:52;1.33;;;0.55;;
26806;SDS011;14380;49.910;6.792;2022-09-21T14:33:29;1.75;;;0.40;;
26806;SDS011;14380;49.910;6.792;2022-09-21T14:35:59;4.20;;;0.63;;
26806;SDS011;14380;49.910;6.792;2022-09-21T14:38:34;1.67;;;0.60;;
26806;SDS011;14380;49.910;6.792;2022-09-21T14:41:14;1.70;;;0.50;;
26806;SDS011;14380;49.910;6.792;2022-09-21T14:43:47;5.90;;;0.77;;
26806;SDS011;14380;49.910;6.792;2022-09-21T14:46:30;1.85;;;0.40;;
26806;SDS011;14380;49.910;6.792;2022-09-21T14:49:14;3.65;;;0.50;;
26806;SDS011;14380;49.910;6.792;2022-09-21T14:51:52;2.90;;;0.70;;
26806;SDS011;14380;49.910;6.792;2022-09-21T14:54:29;2.23;;;0.57;;
26806;SDS011;14380;49.910;6.792;2022-09-21T14:57:08;2.55;;;0.70;;
26806;SDS011;14380;49.910;6.792;2022-09-21T14:59:55;1.80;;;0.40;;
26806;SDS011;14380;49.910;6.792;2022-09-21T15:02:32;3.90;;;0.63;;
26806;SDS011;14380;49.910;6.792;2022-09-21T15:05:03;2.97;;;0.63;;
26806;SDS011;14380;49.910;6.792;2022-09-21T15:07:39;0.70;;;0.35;;
26806;SDS011;14380;49.910;6.792;2022-09-21T15:10:30;3.20;;;0.40;;
26806;SDS011;14380;49.910;6.792;2022-09-21T15:13:19;1.17;;;0.40;;
26806;SDS011;14380;49.910;6.792;2022-09-21T15:16:04;3.22;;;0.50;;
26806;SDS011;14380;49.910;6.792;2022-09-21T15:18:47;3.30;;;0.85;;
26806;SDS011;14380;49.910;6.792;2022-09-21T15:21:19;1.65;;;0.40;;
26806;SDS011;14380;49.910;6.792;2022-09-21T15:23:50;2.20;;;0.40;;
26806;SDS011;14380;49.910;6.792;2022-09-21T15:26:18;3.60;;;0.70;;
26806;SDS011;14380;49.910;6.792;2022-09-21T15:28:48;2.15;;;0.55;;